Ancton, United Kingdom
Current Conditions -  °F | °C
As of 5:20 PM on Thursday 18 Dec 2014 (Local Time) from EGKA Reporting Station
Haze Haze  
Wind Chill: 54°   Ceiling: 800
Heat Index: 54°   Visibility: 2.8mi
Dew Point: 52°   Wind: 21mph
Humidity: 94%   Direction: 240°WSW
Pressure: 29.91"   Gusts: 32mph
Location:  50.83°N, 0.63°W
Report Text: EGKA 181720Z 24018G28KT 4500 HZ BKN008 12/11 Q1013
Loading
Personal Weather Stations






























Interactive Weather Map New forecast layout! Learn more

10-Day Weather Forecast

Advertisements
Track Severe Weather on mobile